Brisbane International Airport
YBBN : now visible

Airfield :











YOU CAN JOIN US ON...

 
LOGIN :

Register | Disclaimer

   EN    FR    IT 

 









Legend :    VFR   Marginal VFR   IFR   Intensive IFR   Very Intensive IFR
Visi :
Ceiling :
>= 8 km
>= 3000ft
5 to 8 km
1000 to 3000 ft
1500m to 5 km
500 to 1000 ft
800 to 1500m
200 to 500 ft
< 800m
< 200 ft
Symbols :   Thunderstorms  Fog  Heavy snow  Heavy precipitations  Wind > 20 kt






- Airport Elevation : 13 ft
- IATA code : BNE


YBBN - Brisbane International

CURRENT METAR :
  • 250800Z 04003KT CAVOK 15/13 Q1014 FM1000 23005KT CAVOK

EXPIRED METARs :
  • 250730Z 04004KT CAVOK 16/13 Q1014 FM1000 23005KT CAVOK
  • 250700Z 03005KT CAVOK 17/12 Q1014
  • 250630Z 03006KT CAVOK 19/12 Q1014 NOSIG
  • 250600Z 02008KT CAVOK 21/10 Q1013
  • 250530Z 03007KT CAVOK 22/09 Q1013

TAF TAF YBBN
Valid from the 25 at 06:00 until the 26 at 12:00 UTC


250500Z 2506/2612 03009KT CAVOK
FM251000 23005KT CAVOK
FM260200 03009KT CAVOK
FM261000 24005KT CAVOK
YBBB FIR / Oceania



MET'MAP, your aeronautical weather chart ! - Copyright ORBIFLY December 2007 - Disclaimer

ORBIFLY MET'MAP TEAM :

Programming & Development : Alexandra Zaïnal
Concept & original design : Baudouin d'Aumeries
Assistance for programming : Marc-Olivier Méhu
Technical & hardware support : Manuel Goepfert

Contact : metmap@orbifly.com




SOURCES & CREDITS :

   NOAA       Earth
Advisory